sensor_id;sensor_type;location;lat;lon;timestamp;P1;durP1;ratioP1;P2;durP2;ratioP2
12703;SDS011;6416;52.182;7.650;2022-09-06T00:00:57;3.03;;;2.30;;
12703;SDS011;6416;52.182;7.650;2022-09-06T00:03:23;2.30;;;2.10;;
12703;SDS011;6416;52.182;7.650;2022-09-06T00:05:49;4.22;;;2.15;;
12703;SDS011;6416;52.182;7.650;2022-09-06T00:08:15;5.63;;;2.20;;
12703;SDS011;6416;52.182;7.650;2022-09-06T00:10:40;2.15;;;2.05;;
12703;SDS011;6416;52.182;7.650;2022-09-06T00:13:07;4.25;;;2.17;;
12703;SDS011;6416;52.182;7.650;2022-09-06T00:15:33;2.88;;;2.10;;
12703;SDS011;6416;52.182;7.650;2022-09-06T00:18:00;2.90;;;2.10;;
12703;SDS011;6416;52.182;7.650;2022-09-06T00:20:29;2.40;;;2.08;;
12703;SDS011;6416;52.182;7.650;2022-09-06T00:22:59;5.30;;;2.50;;
12703;SDS011;6416;52.182;7.650;2022-09-06T00:25:27;3.33;;;2.03;;
12703;SDS011;6416;52.182;7.650;2022-09-06T00:27:54;3.33;;;2.08;;
12703;SDS011;6416;52.182;7.650;2022-09-06T00:30:21;3.67;;;2.10;;
12703;SDS011;6416;52.182;7.650;2022-09-06T00:32:47;2.38;;;2.17;;
12703;SDS011;6416;52.182;7.650;2022-09-06T00:35:12;2.63;;;2.42;;
12703;SDS011;6416;52.182;7.650;2022-09-06T00:37:38;3.30;;;2.08;;
12703;SDS011;6416;52.182;7.650;2022-09-06T00:40:03;2.60;;;2.17;;
12703;SDS011;6416;52.182;7.650;2022-09-06T00:42:29;3.35;;;2.35;;
12703;SDS011;6416;52.182;7.650;2022-09-06T00:44:55;4.60;;;2.35;;
12703;SDS011;6416;52.182;7.650;2022-09-06T00:47:20;3.40;;;2.30;;
12703;SDS011;6416;52.182;7.650;2022-09-06T00:49:46;2.78;;;2.20;;
12703;SDS011;6416;52.182;7.650;2022-09-06T00:52:16;3.75;;;2.13;;
12703;SDS011;6416;52.182;7.650;2022-09-06T00:54:42;2.50;;;2.30;;
12703;SDS011;6416;52.182;7.650;2022-09-06T00:57:08;4.25;;;2.35;;
12703;SDS011;6416;52.182;7.650;2022-09-06T00:59:35;3.85;;;2.30;;
12703;SDS011;6416;52.182;7.650;2022-09-06T01:02:03;2.60;;;2.40;;
12703;SDS011;6416;52.182;7.650;2022-09-06T01:04:29;4.53;;;2.38;;
12703;SDS011;6416;52.182;7.650;2022-09-06T01:09:38;2.83;;;2.47;;
12703;SDS011;6416;52.182;7.650;2022-09-06T01:29:35;2.50;;;2.30;;
12703;SDS011;6416;52.182;7.650;2022-09-06T01:32:11;2.67;;;2.42;;
12703;SDS011;6416;52.182;7.650;2022-09-06T01:35:06;2.80;;;2.60;;
12703;SDS011;6416;52.182;7.650;2022-09-06T01:37:47;2.63;;;2.42;;
12703;SDS011;6416;52.182;7.650;2022-09-06T01:40:13;2.40;;;2.25;;
12703;SDS011;6416;52.182;7.650;2022-09-06T01:42:39;2.55;;;2.40;;
12703;SDS011;6416;52.182;7.650;2022-09-06T01:45:39;2.60;;;2.40;;
12703;SDS011;6416;52.182;7.650;2022-09-06T01:48:03;3.13;;;2.42;;
12703;SDS011;6416;52.182;7.650;2022-09-06T01:55:50;3.97;;;2.38;;
12703;SDS011;6416;52.182;7.650;2022-09-06T01:58:37;3.25;;;2.22;;
12703;SDS011;6416;52.182;7.650;2022-09-06T02:01:16;2.60;;;2.40;;
12703;SDS011;6416;52.182;7.650;2022-09-06T02:06:39;2.75;;;2.55;;
12703;SDS011;6416;52.182;7.650;2022-09-06T02:09:13;2.92;;;2.08;;
12703;SDS011;6416;52.182;7.650;2022-09-06T02:11:43;3.83;;;2.60;;
12703;SDS011;6416;52.182;7.650;2022-09-06T02:14:18;2.40;;;2.20;;
12703;SDS011;6416;52.182;7.650;2022-09-06T02:16:48;2.50;;;2.30;;
12703;SDS011;6416;52.182;7.650;2022-09-06T02:19:20;2.45;;;2.25;;
12703;SDS011;6416;52.182;7.650;2022-09-06T02:22:06;2.47;;;2.13;;
12703;SDS011;6416;52.182;7.650;2022-09-06T02:24:35;3.28;;;2.50;;
12703;SDS011;6416;52.182;7.650;2022-09-06T02:27:02;2.50;;;2.30;;
12703;SDS011;6416;52.182;7.650;2022-09-06T02:29:28;2.40;;;2.20;;
12703;SDS011;6416;52.182;7.650;2022-09-06T02:34:27;3.17;;;2.45;;
12703;SDS011;6416;52.182;7.650;2022-09-06T02:36:53;2.63;;;2.22;;
12703;SDS011;6416;52.182;7.650;2022-09-06T02:39:19;4.75;;;2.20;;
12703;SDS011;6416;52.182;7.650;2022-09-06T02:41:44;2.30;;;2.20;;
12703;SDS011;6416;52.182;7.650;2022-09-06T02:44:10;2.83;;;2.28;;
12703;SDS011;6416;52.182;7.650;2022-09-06T02:46:36;2.50;;;2.30;;
12703;SDS011;6416;52.182;7.650;2022-09-06T02:49:02;3.20;;;2.70;;
12703;SDS011;6416;52.182;7.650;2022-09-06T02:51:27;2.55;;;2.35;;
12703;SDS011;6416;52.182;7.650;2022-09-06T02:53:53;3.80;;;3.28;;
12703;SDS011;6416;52.182;7.650;2022-09-06T02:56:18;3.00;;;2.70;;
12703;SDS011;6416;52.182;7.650;2022-09-06T02:58:44;2.90;;;2.70;;
12703;SDS011;6416;52.182;7.650;2022-09-06T03:01:09;2.50;;;2.30;;
12703;SDS011;6416;52.182;7.650;2022-09-06T03:03:35;4.07;;;2.47;;
12703;SDS011;6416;52.182;7.650;2022-09-06T03:06:00;2.70;;;2.50;;
12703;SDS011;6416;52.182;7.650;2022-09-06T03:08:26;3.38;;;2.65;;
12703;SDS011;6416;52.182;7.650;2022-09-06T03:10:52;2.45;;;2.22;;
12703;SDS011;6416;52.182;7.650;2022-09-06T03:13:19;2.88;;;2.67;;
12703;SDS011;6416;52.182;7.650;2022-09-06T03:15:48;2.83;;;2.33;;
12703;SDS011;6416;52.182;7.650;2022-09-06T03:18:15;2.58;;;2.22;;
12703;SDS011;6416;52.182;7.650;2022-09-06T03:20:40;2.67;;;2.47;;
12703;SDS011;6416;52.182;7.650;2022-09-06T03:23:06;3.28;;;2.88;;
12703;SDS011;6416;52.182;7.650;2022-09-06T03:25:34;2.53;;;2.38;;
12703;SDS011;6416;52.182;7.650;2022-09-06T03:28:00;2.42;;;2.25;;
12703;SDS011;6416;52.182;7.650;2022-09-06T03:30:25;2.33;;;2.13;;
12703;SDS011;6416;52.182;7.650;2022-09-06T03:32:51;4.25;;;2.83;;
12703;SDS011;6416;52.182;7.650;2022-09-06T03:35:16;3.83;;;2.55;;
12703;SDS011;6416;52.182;7.650;2022-09-06T03:37:42;2.88;;;2.63;;
12703;SDS011;6416;52.182;7.650;2022-09-06T03:40:08;2.97;;;2.78;;
12703;SDS011;6416;52.182;7.650;2022-09-06T03:42:34;2.95;;;2.63;;
12703;SDS011;6416;52.182;7.650;2022-09-06T03:44:59;4.25;;;2.42;;
12703;SDS011;6416;52.182;7.650;2022-09-06T03:47:25;2.58;;;2.38;;
12703;SDS011;6416;52.182;7.650;2022-09-06T03:49:50;3.38;;;2.40;;
12703;SDS011;6416;52.182;7.650;2022-09-06T03:52:16;4.93;;;2.60;;
12703;SDS011;6416;52.182;7.650;2022-09-06T03:54:41;2.58;;;2.35;;
12703;SDS011;6416;52.182;7.650;2022-09-06T03:57:07;2.72;;;2.53;;
12703;SDS011;6416;52.182;7.650;2022-09-06T03:59:33;3.20;;;2.50;;
12703;SDS011;6416;52.182;7.650;2022-09-06T04:01:58;2.67;;;2.47;;
12703;SDS011;6416;52.182;7.650;2022-09-06T04:04:24;4.82;;;2.90;;
12703;SDS011;6416;52.182;7.650;2022-09-06T04:06:49;3.47;;;2.92;;
12703;SDS011;6416;52.182;7.650;2022-09-06T04:09:15;3.45;;;2.42;;
12703;SDS011;6416;52.182;7.650;2022-09-06T04:11:40;2.88;;;2.50;;
12703;SDS011;6416;52.182;7.650;2022-09-06T04:14:06;11.02;;;3.30;;
12703;SDS011;6416;52.182;7.650;2022-09-06T04:16:31;7.43;;;2.63;;
12703;SDS011;6416;52.182;7.650;2022-09-06T04:18:57;3.10;;;2.60;;
12703;SDS011;6416;52.182;7.650;2022-09-06T04:21:22;5.32;;;2.70;;
12703;SDS011;6416;52.182;7.650;2022-09-06T04:23:48;4.70;;;2.42;;
12703;SDS011;6416;52.182;7.650;2022-09-06T04:26:13;4.75;;;3.00;;
12703;SDS011;6416;52.182;7.650;2022-09-06T04:28:39;2.60;;;2.40;;
12703;SDS011;6416;52.182;7.650;2022-09-06T04:31:04;3.72;;;2.53;;
12703;SDS011;6416;52.182;7.650;2022-09-06T04:33:30;4.07;;;2.55;;
12703;SDS011;6416;52.182;7.650;2022-09-06T04:35:57;4.03;;;2.35;;
12703;SDS011;6416;52.182;7.650;2022-09-06T04:38:25;3.10;;;2.70;;
12703;SDS011;6416;52.182;7.650;2022-09-06T04:40:52;2.45;;;2.25;;
12703;SDS011;6416;52.182;7.650;2022-09-06T04:43:18;3.53;;;2.20;;
12703;SDS011;6416;52.182;7.650;2022-09-06T04:45:43;2.92;;;2.58;;
12703;SDS011;6416;52.182;7.650;2022-09-06T04:48:09;2.40;;;2.20;;
12703;SDS011;6416;52.182;7.650;2022-09-06T04:50:35;4.00;;;2.55;;
12703;SDS011;6416;52.182;7.650;2022-09-06T04:53:01;3.33;;;3.03;;
12703;SDS011;6416;52.182;7.650;2022-09-06T04:55:27;2.60;;;2.40;;
12703;SDS011;6416;52.182;7.650;2022-09-06T04:57:52;2.88;;;2.45;;
12703;SDS011;6416;52.182;7.650;2022-09-06T05:00:18;2.30;;;2.10;;
12703;SDS011;6416;52.182;7.650;2022-09-06T05:02:43;4.47;;;2.88;;
12703;SDS011;6416;52.182;7.650;2022-09-06T05:05:09;3.33;;;2.33;;
12703;SDS011;6416;52.182;7.650;2022-09-06T05:07:35;4.75;;;2.60;;
12703;SDS011;6416;52.182;7.650;2022-09-06T05:10:00;2.70;;;2.50;;
12703;SDS011;6416;52.182;7.650;2022-09-06T05:12:26;2.42;;;2.33;;
12703;SDS011;6416;52.182;7.650;2022-09-06T05:14:52;2.78;;;2.58;;
12703;SDS011;6416;52.182;7.650;2022-09-06T05:17:17;5.20;;;2.75;;
12703;SDS011;6416;52.182;7.650;2022-09-06T05:19:42;3.85;;;2.70;;
12703;SDS011;6416;52.182;7.650;2022-09-06T05:22:09;4.85;;;2.65;;
12703;SDS011;6416;52.182;7.650;2022-09-06T05:24:35;3.28;;;2.40;;
12703;SDS011;6416;52.182;7.650;2022-09-06T05:27:01;3.03;;;2.22;;
12703;SDS011;6416;52.182;7.650;2022-09-06T05:29:26;3.10;;;2.80;;
12703;SDS011;6416;52.182;7.650;2022-09-06T05:31:52;2.83;;;2.63;;
12703;SDS011;6416;52.182;7.650;2022-09-06T05:34:17;3.60;;;3.00;;
12703;SDS011;6416;52.182;7.650;2022-09-06T05:36:43;3.75;;;3.00;;
12703;SDS011;6416;52.182;7.650;2022-09-06T05:39:08;4.15;;;2.80;;
12703;SDS011;6416;52.182;7.650;2022-09-06T05:41:34;4.18;;;2.45;;
12703;SDS011;6416;52.182;7.650;2022-09-06T05:43:59;5.22;;;2.80;;
12703;SDS011;6416;52.182;7.650;2022-09-06T05:46:25;2.70;;;2.50;;
12703;SDS011;6416;52.182;7.650;2022-09-06T05:48:51;2.72;;;2.53;;
12703;SDS011;6416;52.182;7.650;2022-09-06T05:51:20;6.35;;;3.80;;
12703;SDS011;6416;52.182;7.650;2022-09-06T05:53:46;5.10;;;2.63;;
12703;SDS011;6416;52.182;7.650;2022-09-06T05:56:12;5.13;;;2.95;;
12703;SDS011;6416;52.182;7.650;2022-09-06T05:58:38;4.15;;;2.92;;
12703;SDS011;6416;52.182;7.650;2022-09-06T06:03:40;3.00;;;2.75;;
12703;SDS011;6416;52.182;7.650;2022-09-06T06:06:06;3.13;;;2.88;;
12703;SDS011;6416;52.182;7.650;2022-09-06T06:08:31;4.72;;;2.78;;
12703;SDS011;6416;52.182;7.650;2022-09-06T06:10:58;3.10;;;2.80;;
12703;SDS011;6416;52.182;7.650;2022-09-06T06:13:25;3.50;;;3.08;;
12703;SDS011;6416;52.182;7.650;2022-09-06T06:15:52;3.10;;;2.80;;
12703;SDS011;6416;52.182;7.650;2022-09-06T06:18:17;4.07;;;3.47;;
12703;SDS011;6416;52.182;7.650;2022-09-06T06:20:42;5.47;;;3.00;;
12703;SDS011;6416;52.182;7.650;2022-09-06T06:23:08;4.47;;;3.30;;
12703;SDS011;6416;52.182;7.650;2022-09-06T06:25:33;3.88;;;3.53;;
12703;SDS011;6416;52.182;7.650;2022-09-06T06:27:59;8.88;;;3.53;;
12703;SDS011;6416;52.182;7.650;2022-09-06T06:30:24;4.82;;;3.47;;
12703;SDS011;6416;52.182;7.650;2022-09-06T06:32:50;5.00;;;3.45;;
12703;SDS011;6416;52.182;7.650;2022-09-06T06:35:15;7.38;;;3.60;;
12703;SDS011;6416;52.182;7.650;2022-09-06T06:37:41;5.68;;;3.22;;
12703;SDS011;6416;52.182;7.650;2022-09-06T06:40:07;8.10;;;3.65;;
12703;SDS011;6416;52.182;7.650;2022-09-06T06:42:32;3.97;;;3.33;;
12703;SDS011;6416;52.182;7.650;2022-09-06T06:44:58;3.30;;;2.92;;
12703;SDS011;6416;52.182;7.650;2022-09-06T06:47:23;3.40;;;3.08;;
12703;SDS011;6416;52.182;7.650;2022-09-06T06:49:49;5.32;;;3.28;;
12703;SDS011;6416;52.182;7.650;2022-09-06T06:52:14;4.15;;;3.33;;
12703;SDS011;6416;52.182;7.650;2022-09-06T06:54:40;4.70;;;3.25;;
12703;SDS011;6416;52.182;7.650;2022-09-06T06:57:05;5.15;;;2.97;;
12703;SDS011;6416;52.182;7.650;2022-09-06T06:59:31;3.47;;;3.15;;
12703;SDS011;6416;52.182;7.650;2022-09-06T07:01:56;6.85;;;3.33;;
12703;SDS011;6416;52.182;7.650;2022-09-06T07:04:22;3.85;;;3.38;;
12703;SDS011;6416;52.182;7.650;2022-09-06T07:06:51;4.60;;;3.60;;
12703;SDS011;6416;52.182;7.650;2022-09-06T07:09:18;3.85;;;3.55;;
12703;SDS011;6416;52.182;7.650;2022-09-06T07:11:45;4.10;;;3.80;;
12703;SDS011;6416;52.182;7.650;2022-09-06T07:14:11;4.40;;;3.80;;
12703;SDS011;6416;52.182;7.650;2022-09-06T07:16:36;6.55;;;3.67;;
12703;SDS011;6416;52.182;7.650;2022-09-06T07:19:02;4.15;;;3.75;;
12703;SDS011;6416;52.182;7.650;2022-09-06T07:21:27;3.78;;;3.47;;
12703;SDS011;6416;52.182;7.650;2022-09-06T07:23:53;4.55;;;3.60;;
12703;SDS011;6416;52.182;7.650;2022-09-06T07:26:27;7.25;;;3.03;;
12703;SDS011;6416;52.182;7.650;2022-09-06T07:28:54;3.53;;;3.13;;
12703;SDS011;6416;52.182;7.650;2022-09-06T07:31:21;3.50;;;3.20;;
12703;SDS011;6416;52.182;7.650;2022-09-06T07:33:46;3.80;;;3.50;;
12703;SDS011;6416;52.182;7.650;2022-09-06T07:36:12;4.63;;;3.10;;
12703;SDS011;6416;52.182;7.650;2022-09-06T07:38:38;3.15;;;2.85;;
12703;SDS011;6416;52.182;7.650;2022-09-06T07:41:04;3.35;;;3.05;;
12703;SDS011;6416;52.182;7.650;2022-09-06T07:43:31;3.30;;;2.92;;
12703;SDS011;6416;52.182;7.650;2022-09-06T07:46:01;2.97;;;2.70;;
12703;SDS011;6416;52.182;7.650;2022-09-06T07:48:27;4.25;;;2.85;;
12703;SDS011;6416;52.182;7.650;2022-09-06T07:51:03;4.03;;;2.70;;
12703;SDS011;6416;52.182;7.650;2022-09-06T07:53:29;4.90;;;3.28;;
12703;SDS011;6416;52.182;7.650;2022-09-06T07:55:54;3.30;;;2.80;;
12703;SDS011;6416;52.182;7.650;2022-09-06T07:58:20;6.53;;;2.88;;
12703;SDS011;6416;52.182;7.650;2022-09-06T08:00:45;3.00;;;2.70;;
12703;SDS011;6416;52.182;7.650;2022-09-06T08:03:11;5.00;;;3.10;;
12703;SDS011;6416;52.182;7.650;2022-09-06T08:05:36;5.28;;;2.83;;
12703;SDS011;6416;52.182;7.650;2022-09-06T08:08:02;2.55;;;2.33;;
12703;SDS011;6416;52.182;7.650;2022-09-06T08:10:27;3.63;;;2.78;;
12703;SDS011;6416;52.182;7.650;2022-09-06T08:12:53;3.10;;;2.72;;
12703;SDS011;6416;52.182;7.650;2022-09-06T08:15:18;2.55;;;2.30;;
12703;SDS011;6416;52.182;7.650;2022-09-06T08:17:46;3.95;;;2.40;;
12703;SDS011;6416;52.182;7.650;2022-09-06T08:20:12;3.25;;;2.78;;
12703;SDS011;6416;52.182;7.650;2022-09-06T08:22:38;3.38;;;2.38;;
12703;SDS011;6416;52.182;7.650;2022-09-06T08:25:03;3.30;;;2.20;;
12703;SDS011;6416;52.182;7.650;2022-09-06T08:27:29;2.60;;;2.40;;
12703;SDS011;6416;52.182;7.650;2022-09-06T08:29:55;6.20;;;2.63;;
12703;SDS011;6416;52.182;7.650;2022-09-06T08:32:20;5.22;;;2.80;;
12703;SDS011;6416;52.182;7.650;2022-09-06T08:34:46;2.53;;;2.33;;
12703;SDS011;6416;52.182;7.650;2022-09-06T08:37:11;4.10;;;2.35;;
12703;SDS011;6416;52.182;7.650;2022-09-06T08:39:36;2.65;;;2.33;;
12703;SDS011;6416;52.182;7.650;2022-09-06T08:42:05;3.38;;;2.40;;
12703;SDS011;6416;52.182;7.650;2022-09-06T08:44:39;7.95;;;2.55;;
12703;SDS011;6416;52.182;7.650;2022-09-06T08:47:08;3.83;;;2.22;;
12703;SDS011;6416;52.182;7.650;2022-09-06T08:49:42;2.65;;;2.45;;
12703;SDS011;6416;52.182;7.650;2022-09-06T08:54:43;2.58;;;2.38;;
12703;SDS011;6416;52.182;7.650;2022-09-06T08:57:26;3.15;;;2.40;;
12703;SDS011;6416;52.182;7.650;2022-09-06T09:00:21;12.18;;;2.60;;
12703;SDS011;6416;52.182;7.650;2022-09-06T09:02:55;6.95;;;2.38;;
12703;SDS011;6416;52.182;7.650;2022-09-06T09:05:30;2.50;;;2.30;;
12703;SDS011;6416;52.182;7.650;2022-09-06T09:07:59;2.53;;;2.25;;
12703;SDS011;6416;52.182;7.650;2022-09-06T09:10:31;2.00;;;1.80;;
12703;SDS011;6416;52.182;7.650;2022-09-06T09:13:21;2.15;;;1.95;;
12703;SDS011;6416;52.182;7.650;2022-09-06T09:15:56;2.03;;;1.80;;
12703;SDS011;6416;52.182;7.650;2022-09-06T09:18:24;3.25;;;1.83;;
12703;SDS011;6416;52.182;7.650;2022-09-06T09:20:51;3.58;;;2.00;;
12703;SDS011;6416;52.182;7.650;2022-09-06T09:23:17;5.20;;;1.85;;
12703;SDS011;6416;52.182;7.650;2022-09-06T09:25:43;2.75;;;1.98;;
12703;SDS011;6416;52.182;7.650;2022-09-06T09:28:10;2.17;;;1.80;;
12703;SDS011;6416;52.182;7.650;2022-09-06T09:30:44;2.00;;;1.73;;
12703;SDS011;6416;52.182;7.650;2022-09-06T09:33:21;2.05;;;1.75;;
12703;SDS011;6416;52.182;7.650;2022-09-06T09:35:49;4.57;;;1.80;;
12703;SDS011;6416;52.182;7.650;2022-09-06T09:38:22;2.30;;;1.60;;
12703;SDS011;6416;52.182;7.650;2022-09-06T09:40:58;3.53;;;1.65;;
12703;SDS011;6416;52.182;7.650;2022-09-06T09:43:33;3.53;;;1.42;;
12703;SDS011;6416;52.182;7.650;2022-09-06T09:48:59;2.88;;;1.50;;
12703;SDS011;6416;52.182;7.650;2022-09-06T09:51:40;1.70;;;1.40;;
12703;SDS011;6416;52.182;7.650;2022-09-06T09:54:12;1.48;;;1.35;;
12703;SDS011;6416;52.182;7.650;2022-09-06T09:56:48;1.40;;;1.30;;
12703;SDS011;6416;52.182;7.650;2022-09-06T09:59:19;3.35;;;1.52;;
12703;SDS011;6416;52.182;7.650;2022-09-06T10:02:15;2.05;;;1.40;;
12703;SDS011;6416;52.182;7.650;2022-09-06T10:04:48;1.20;;;1.10;;
12703;SDS011;6416;52.182;7.650;2022-09-06T10:07:22;6.20;;;1.83;;
12703;SDS011;6416;52.182;7.650;2022-09-06T10:09:59;1.85;;;1.17;;
12703;SDS011;6416;52.182;7.650;2022-09-06T10:12:29;1.45;;;1.02;;
12703;SDS011;6416;52.182;7.650;2022-09-06T10:15:00;3.42;;;1.10;;
12703;SDS011;6416;52.182;7.650;2022-09-06T10:17:30;3.58;;;1.20;;
12703;SDS011;6416;52.182;7.650;2022-09-06T10:20:08;0.95;;;0.85;;
12703;SDS011;6416;52.182;7.650;2022-09-06T10:25:39;1.40;;;1.00;;
12703;SDS011;6416;52.182;7.650;2022-09-06T10:36:05;0.98;;;0.88;;
12703;SDS011;6416;52.182;7.650;2022-09-06T10:41:27;1.40;;;0.93;;
12703;SDS011;6416;52.182;7.650;2022-09-06T10:46:53;1.58;;;0.98;;
12703;SDS011;6416;52.182;7.650;2022-09-06T10:49:27;1.67;;;1.00;;
12703;SDS011;6416;52.182;7.650;2022-09-06T10:51:53;1.38;;;0.90;;
12703;SDS011;6416;52.182;7.650;2022-09-06T10:54:25;1.48;;;1.00;;
12703;SDS011;6416;52.182;7.650;2022-09-06T10:59:26;1.98;;;1.00;;
12703;SDS011;6416;52.182;7.650;2022-09-06T11:04:48;1.40;;;1.10;;
12703;SDS011;6416;52.182;7.650;2022-09-06T11:07:25;1.20;;;1.00;;
12703;SDS011;6416;52.182;7.650;2022-09-06T11:14:55;0.80;;;0.80;;
12703;SDS011;6416;52.182;7.650;2022-09-06T11:17:26;1.42;;;1.00;;
12703;SDS011;6416;52.182;7.650;2022-09-06T11:28:03;1.70;;;0.93;;
12703;SDS011;6416;52.182;7.650;2022-09-06T11:30:34;0.98;;;0.75;;
12703;SDS011;6416;52.182;7.650;2022-09-06T11:33:12;1.02;;;0.70;;
12703;SDS011;6416;52.182;7.650;2022-09-06T11:35:43;2.75;;;0.75;;
12703;SDS011;6416;52.182;7.650;2022-09-06T11:40:47;1.27;;;0.77;;
12703;SDS011;6416;52.182;7.650;2022-09-06T11:46:55;0.90;;;0.85;;
12703;SDS011;6416;52.182;7.650;2022-09-06T11:49:26;0.73;;;0.73;;
12703;SDS011;6416;52.182;7.650;2022-09-06T11:51:56;1.67;;;0.85;;
12703;SDS011;6416;52.182;7.650;2022-09-06T11:54:23;0.88;;;0.70;;
12703;SDS011;6416;52.182;7.650;2022-09-06T11:56:56;1.13;;;0.82;;
12703;SDS011;6416;52.182;7.650;2022-09-06T11:59:30;1.77;;;1.00;;
12703;SDS011;6416;52.182;7.650;2022-09-06T12:02:02;1.13;;;0.75;;
12703;SDS011;6416;52.182;7.650;2022-09-06T12:07:23;0.70;;;0.70;;
12703;SDS011;6416;52.182;7.650;2022-09-06T12:09:49;2.90;;;0.90;;
12703;SDS011;6416;52.182;7.650;2022-09-06T12:17:50;1.23;;;0.80;;
12703;SDS011;6416;52.182;7.650;2022-09-06T12:26:42;1.35;;;0.90;;
12703;SDS011;6416;52.182;7.650;2022-09-06T12:29:10;1.17;;;0.68;;
12703;SDS011;6416;52.182;7.650;2022-09-06T12:31:37;0.98;;;0.70;;
12703;SDS011;6416;52.182;7.650;2022-09-06T12:34:07;1.20;;;0.70;;
12703;SDS011;6416;52.182;7.650;2022-09-06T12:36:39;0.75;;;0.73;;
12703;SDS011;6416;52.182;7.650;2022-09-06T12:39:16;1.70;;;0.77;;
12703;SDS011;6416;52.182;7.650;2022-09-06T12:41:44;2.72;;;1.05;;
12703;SDS011;6416;52.182;7.650;2022-09-06T12:44:14;1.42;;;1.00;;
12703;SDS011;6416;52.182;7.650;2022-09-06T12:46:48;1.70;;;1.15;;
12703;SDS011;6416;52.182;7.650;2022-09-06T12:49:17;1.23;;;1.08;;
12703;SDS011;6416;52.182;7.650;2022-09-06T12:51:44;1.10;;;0.95;;
12703;SDS011;6416;52.182;7.650;2022-09-06T12:54:21;2.58;;;0.90;;
12703;SDS011;6416;52.182;7.650;2022-09-06T12:56:48;3.90;;;0.93;;
12703;SDS011;6416;52.182;7.650;2022-09-06T12:59:15;3.33;;;0.90;;
12703;SDS011;6416;52.182;7.650;2022-09-06T13:01:45;1.52;;;0.82;;
12703;SDS011;6416;52.182;7.650;2022-09-06T13:04:39;1.10;;;0.85;;
12703;SDS011;6416;52.182;7.650;2022-09-06T13:07:08;0.95;;;0.80;;
12703;SDS011;6416;52.182;7.650;2022-09-06T13:09:41;1.25;;;0.90;;
12703;SDS011;6416;52.182;7.650;2022-09-06T13:14:53;4.05;;;0.80;;
12703;SDS011;6416;52.182;7.650;2022-09-06T13:17:24;2.53;;;0.90;;
12703;SDS011;6416;52.182;7.650;2022-09-06T13:19:51;1.75;;;0.73;;
12703;SDS011;6416;52.182;7.650;2022-09-06T13:22:36;0.80;;;0.80;;
12703;SDS011;6416;52.182;7.650;2022-09-06T13:25:03;0.70;;;0.70;;
12703;SDS011;6416;52.182;7.650;2022-09-06T13:29:55;1.08;;;0.90;;
12703;SDS011;6416;52.182;7.650;2022-09-06T13:32:22;1.05;;;0.95;;
12703;SDS011;6416;52.182;7.650;2022-09-06T13:34:48;1.15;;;1.00;;
12703;SDS011;6416;52.182;7.650;2022-09-06T13:37:14;3.65;;;0.82;;
12703;SDS011;6416;52.182;7.650;2022-09-06T13:39:40;0.70;;;0.70;;
12703;SDS011;6416;52.182;7.650;2022-09-06T13:42:08;1.02;;;0.93;;
12703;SDS011;6416;52.182;7.650;2022-09-06T13:44:47;1.67;;;0.90;;
12703;SDS011;6416;52.182;7.650;2022-09-06T13:47:12;0.90;;;0.90;;
12703;SDS011;6416;52.182;7.650;2022-09-06T13:49:38;4.25;;;0.93;;
12703;SDS011;6416;52.182;7.650;2022-09-06T13:52:03;1.88;;;0.85;;
12703;SDS011;6416;52.182;7.650;2022-09-06T13:54:29;1.75;;;0.90;;
12703;SDS011;6416;52.182;7.650;2022-09-06T13:56:55;1.83;;;1.02;;
12703;SDS011;6416;52.182;7.650;2022-09-06T13:59:22;4.95;;;1.05;;
12703;SDS011;6416;52.182;7.650;2022-09-06T14:01:49;1.00;;;0.80;;
12703;SDS011;6416;52.182;7.650;2022-09-06T14:04:22;2.58;;;1.15;;
12703;SDS011;6416;52.182;7.650;2022-09-06T14:06:48;2.72;;;0.93;;
12703;SDS011;6416;52.182;7.650;2022-09-06T14:09:14;0.80;;;0.80;;
12703;SDS011;6416;52.182;7.650;2022-09-06T14:11:39;1.50;;;0.88;;
12703;SDS011;6416;52.182;7.650;2022-09-06T14:14:05;1.15;;;1.02;;
12703;SDS011;6416;52.182;7.650;2022-09-06T14:16:31;2.70;;;0.98;;
12703;SDS011;6416;52.182;7.650;2022-09-06T14:18:57;1.02;;;0.93;;
12703;SDS011;6416;52.182;7.650;2022-09-06T14:21:23;2.95;;;0.82;;
12703;SDS011;6416;52.182;7.650;2022-09-06T14:23:49;2.50;;;0.90;;
12703;SDS011;6416;52.182;7.650;2022-09-06T14:26:15;1.73;;;1.20;;
12703;SDS011;6416;52.182;7.650;2022-09-06T14:28:41;2.55;;;1.10;;
12703;SDS011;6416;52.182;7.650;2022-09-06T14:31:16;1.58;;;1.02;;
12703;SDS011;6416;52.182;7.650;2022-09-06T14:33:44;5.10;;;0.90;;
12703;SDS011;6416;52.182;7.650;2022-09-06T14:36:13;2.65;;;1.00;;
12703;SDS011;6416;52.182;7.650;2022-09-06T14:38:41;1.05;;;0.90;;
12703;SDS011;6416;52.182;7.650;2022-09-06T14:41:08;2.10;;;1.15;;
12703;SDS011;6416;52.182;7.650;2022-09-06T14:43:34;4.75;;;0.88;;
12703;SDS011;6416;52.182;7.650;2022-09-06T14:46:01;1.55;;;0.88;;
12703;SDS011;6416;52.182;7.650;2022-09-06T14:48:32;1.98;;;1.00;;
12703;SDS011;6416;52.182;7.650;2022-09-06T14:50:58;0.85;;;0.85;;
12703;SDS011;6416;52.182;7.650;2022-09-06T14:53:31;2.17;;;0.90;;
12703;SDS011;6416;52.182;7.650;2022-09-06T14:56:00;2.30;;;1.10;;
12703;SDS011;6416;52.182;7.650;2022-09-06T14:58:26;0.85;;;0.85;;
12703;SDS011;6416;52.182;7.650;2022-09-06T15:00:54;0.90;;;0.90;;
12703;SDS011;6416;52.182;7.650;2022-09-06T15:03:20;2.17;;;0.93;;
12703;SDS011;6416;52.182;7.650;2022-09-06T15:05:45;1.42;;;1.17;;
12703;SDS011;6416;52.182;7.650;2022-09-06T15:08:11;1.10;;;1.00;;
12703;SDS011;6416;52.182;7.650;2022-09-06T15:10:36;0.70;;;0.70;;
12703;SDS011;6416;52.182;7.650;2022-09-06T15:13:02;2.08;;;0.90;;
12703;SDS011;6416;52.182;7.650;2022-09-06T15:15:27;1.88;;;1.00;;
12703;SDS011;6416;52.182;7.650;2022-09-06T15:17:53;1.67;;;0.98;;
12703;SDS011;6416;52.182;7.650;2022-09-06T15:20:18;1.35;;;0.98;;
12703;SDS011;6416;52.182;7.650;2022-09-06T15:22:44;1.50;;;0.88;;
12703;SDS011;6416;52.182;7.650;2022-09-06T15:25:09;2.72;;;1.10;;
12703;SDS011;6416;52.182;7.650;2022-09-06T15:27:35;0.95;;;0.90;;
12703;SDS011;6416;52.182;7.650;2022-09-06T15:30:00;1.10;;;1.00;;
12703;SDS011;6416;52.182;7.650;2022-09-06T15:32:26;1.55;;;0.80;;
12703;SDS011;6416;52.182;7.650;2022-09-06T15:34:51;2.65;;;1.00;;
12703;SDS011;6416;52.182;7.650;2022-09-06T15:37:17;0.98;;;0.73;;
12703;SDS011;6416;52.182;7.650;2022-09-06T15:39:42;1.17;;;0.98;;
12703;SDS011;6416;52.182;7.650;2022-09-06T15:42:08;3.53;;;1.08;;
12703;SDS011;6416;52.182;7.650;2022-09-06T15:44:33;0.90;;;0.77;;
12703;SDS011;6416;52.182;7.650;2022-09-06T15:46:59;1.20;;;0.95;;
12703;SDS011;6416;52.182;7.650;2022-09-06T15:49:25;1.13;;;0.80;;
12703;SDS011;6416;52.182;7.650;2022-09-06T15:51:53;1.05;;;0.80;;
12703;SDS011;6416;52.182;7.650;2022-09-06T15:54:20;1.00;;;0.70;;
12703;SDS011;6416;52.182;7.650;2022-09-06T15:56:46;2.55;;;1.20;;
12703;SDS011;6416;52.182;7.650;2022-09-06T15:59:11;1.25;;;1.15;;
12703;SDS011;6416;52.182;7.650;2022-09-06T16:01:37;2.00;;;1.00;;
12703;SDS011;6416;52.182;7.650;2022-09-06T16:04:03;1.05;;;0.75;;
12703;SDS011;6416;52.182;7.650;2022-09-06T16:06:37;3.25;;;1.15;;
12703;SDS011;6416;52.182;7.650;2022-09-06T16:09:08;4.13;;;1.25;;
12703;SDS011;6416;52.182;7.650;2022-09-06T16:11:35;3.03;;;1.23;;
12703;SDS011;6416;52.182;7.650;2022-09-06T16:14:04;1.83;;;1.08;;
12703;SDS011;6416;52.182;7.650;2022-09-06T16:16:32;1.75;;;1.17;;
12703;SDS011;6416;52.182;7.650;2022-09-06T16:18:58;3.15;;;1.00;;
12703;SDS011;6416;52.182;7.650;2022-09-06T16:21:25;0.88;;;0.73;;
12703;SDS011;6416;52.182;7.650;2022-09-06T16:24:11;2.22;;;1.23;;
12703;SDS011;6416;52.182;7.650;2022-09-06T16:26:38;1.13;;;0.90;;
12703;SDS011;6416;52.182;7.650;2022-09-06T16:29:08;2.80;;;1.75;;
12703;SDS011;6416;52.182;7.650;2022-09-06T16:31:35;1.42;;;0.93;;
12703;SDS011;6416;52.182;7.650;2022-09-06T16:34:01;2.17;;;1.27;;
12703;SDS011;6416;52.182;7.650;2022-09-06T16:36:27;5.38;;;0.88;;
12703;SDS011;6416;52.182;7.650;2022-09-06T16:38:53;1.02;;;0.85;;
12703;SDS011;6416;52.182;7.650;2022-09-06T16:41:20;1.63;;;1.05;;
12703;SDS011;6416;52.182;7.650;2022-09-06T16:43:47;1.83;;;1.25;;
12703;SDS011;6416;52.182;7.650;2022-09-06T16:46:12;1.25;;;0.98;;